createdAt,value
2022-08-10T00:01:52.974Z,15.19
2022-08-10T00:04:23.713Z,15.22
2022-08-10T00:06:53.242Z,15.26
2022-08-10T00:09:21.071Z,15.22
2022-08-10T00:11:47.717Z,15.16
2022-08-10T00:14:14.381Z,15.13
2022-08-10T00:16:41.024Z,15.12
2022-08-10T00:19:07.698Z,15.06
2022-08-10T00:21:34.411Z,15.06
2022-08-10T00:24:01.156Z,15.06
2022-08-10T00:27:52.855Z,15.10
2022-08-10T00:29:14.646Z,15.00
2022-08-10T00:31:58.537Z,14.87
2022-08-10T00:34:30.599Z,14.82
2022-08-10T00:36:58.159Z,14.70
2022-08-10T00:39:26.023Z,14.66
2022-08-10T00:42:07.380Z,14.64
2022-08-10T00:44:43.740Z,14.58
2022-08-10T00:47:36.499Z,14.65
2022-08-10T00:49:58.894Z,14.66
2022-08-10T00:52:27.500Z,14.68
2022-08-10T00:54:55.198Z,14.71
2022-08-10T00:57:22.619Z,14.72
2022-08-10T00:59:58.778Z,14.67
2022-08-10T01:02:31.040Z,14.67
2022-08-10T01:05:07.790Z,14.66
2022-08-10T01:07:46.435Z,14.75
2022-08-10T01:10:27.140Z,14.86
2022-08-10T01:13:01.576Z,14.91
2022-08-10T01:15:43.407Z,14.83
2022-08-10T01:18:18.645Z,14.81
2022-08-10T01:21:23.572Z,14.91
2022-08-10T01:23:56.136Z,14.92
2022-08-10T01:26:59.797Z,14.95
2022-08-10T01:29:26.412Z,14.97
2022-08-10T01:32:01.156Z,14.98
2022-08-10T01:34:36.844Z,14.97
2022-08-10T01:37:14.792Z,14.97
2022-08-10T01:39:46.820Z,14.99
2022-08-10T01:42:16.891Z,15.01
2022-08-10T01:44:49.989Z,14.99
2022-08-10T01:47:37.389Z,14.95
2022-08-10T01:50:15.217Z,14.98
2022-08-10T01:52:45.459Z,15.03
2022-08-10T01:55:16.000Z,15.10
2022-08-10T01:57:45.760Z,15.16
2022-08-10T02:00:13.760Z,15.21
2022-08-10T02:02:43.111Z,15.17
2022-08-10T02:05:12.056Z,15.16
2022-08-10T02:07:41.385Z,15.14
2022-08-10T02:10:11.647Z,15.10
2022-08-10T02:12:41.116Z,15.11
2022-08-10T02:15:12.951Z,15.15
2022-08-10T02:18:00.250Z,15.18
2022-08-10T02:20:39.930Z,15.19
2022-08-10T02:23:11.729Z,15.24
2022-08-10T02:25:43.593Z,15.23
2022-08-10T02:28:27.083Z,15.20
2022-08-10T02:30:59.548Z,15.24
2022-08-10T02:33:27.767Z,15.25
2022-08-10T02:35:58.519Z,15.21
2022-08-10T02:38:59.181Z,15.15
2022-08-10T02:45:09.020Z,15.17
2022-08-10T02:45:22.577Z,15.20
2022-08-10T02:48:05.626Z,15.17
2022-08-10T02:50:35.042Z,15.20
2022-08-10T02:53:54.608Z,15.28
2022-08-10T02:56:24.852Z,15.36
2022-08-10T02:59:05.524Z,15.44
2022-08-10T03:01:39.067Z,15.47
2022-08-10T03:04:11.902Z,15.50
2022-08-10T03:06:44.471Z,15.57
2022-08-10T03:09:15.223Z,15.58
2022-08-10T03:12:37.478Z,15.58
2022-08-10T03:14:34.279Z,15.57
2022-08-10T03:17:04.040Z,15.61
2022-08-10T03:20:34.707Z,15.64
2022-08-10T03:22:22.526Z,15.69
2022-08-10T03:24:51.544Z,15.68
2022-08-10T03:27:19.108Z,15.73
2022-08-10T03:30:29.750Z,15.76
2022-08-10T03:32:35.736Z,15.72
2022-08-10T03:35:03.056Z,15.72
2022-08-10T03:37:29.998Z,15.75
2022-08-10T03:39:57.179Z,15.83
2022-08-10T03:42:25.004Z,15.87
2022-08-10T03:44:53.346Z,15.86
2022-08-10T03:47:24.624Z,15.94
2022-08-10T03:49:52.402Z,15.97
2022-08-10T03:52:22.073Z,15.92
2022-08-10T03:54:51.719Z,15.93
2022-08-10T03:57:20.548Z,15.96
2022-08-10T03:59:47.435Z,15.91
2022-08-10T04:02:43.692Z,15.94
2022-08-10T04:05:01.244Z,15.95
2022-08-10T04:07:29.536Z,15.95
2022-08-10T04:09:56.537Z,15.97
2022-08-10T04:12:25.597Z,16.01
2022-08-10T04:14:53.471Z,15.98
2022-08-10T04:17:57.179Z,15.98
2022-08-10T04:20:18.448Z,15.97
2022-08-10T04:22:48.825Z,16.01
2022-08-10T04:25:16.601Z,16.07
2022-08-10T04:27:44.557Z,16.08
2022-08-10T04:30:13.784Z,16.04
2022-08-10T04:32:42.290Z,16.04
2022-08-10T04:35:10.973Z,16.09
2022-08-10T04:37:46.960Z,16.11
2022-08-10T04:40:29.966Z,16.13
2022-08-10T04:43:12.206Z,16.19
2022-08-10T04:45:47.268Z,16.19
2022-08-10T04:48:42.084Z,16.21
2022-08-10T04:51:04.914Z,16.31
2022-08-10T04:53:34.204Z,16.35
2022-08-10T04:56:31.644Z,16.32
2022-08-10T04:58:59.324Z,16.35
2022-08-10T05:01:26.105Z,16.33
2022-08-10T05:04:35.170Z,16.34
2022-08-10T05:06:40.112Z,16.34
2022-08-10T05:09:06.797Z,16.39
2022-08-10T05:11:33.560Z,16.34
2022-08-10T05:14:00.477Z,16.31
2022-08-10T05:16:32.036Z,16.33
2022-08-10T05:18:59.617Z,16.29
2022-08-10T05:22:02.504Z,16.33
2022-08-10T05:24:15.348Z,16.31
2022-08-10T05:27:00.598Z,16.32
2022-08-10T05:29:29.141Z,16.37
2022-08-10T05:31:56.301Z,16.42
2022-08-10T05:34:27.630Z,16.42
2022-08-10T05:36:55.681Z,16.46
2022-08-10T05:39:30.373Z,16.42
2022-08-10T05:42:01.255Z,16.43
2022-08-10T05:44:29.350Z,16.46
2022-08-10T05:46:56.439Z,16.49
2022-08-10T05:49:23.191Z,16.46
2022-08-10T05:51:50.433Z,16.54
2022-08-10T05:54:19.336Z,16.55
2022-08-10T05:56:55.715Z,16.55
2022-08-10T06:00:29.410Z,16.63
2022-08-10T06:02:48.068Z,16.69
2022-08-10T06:05:20.700Z,16.76
2022-08-10T06:07:55.609Z,16.79
2022-08-10T06:10:31.229Z,16.78
2022-08-10T06:13:30.297Z,16.85
2022-08-10T06:16:06.070Z,16.59
2022-08-10T06:18:33.133Z,16.62
2022-08-10T06:21:01.029Z,16.77
2022-08-10T06:23:32.099Z,16.86
2022-08-10T06:26:11.097Z,16.96
2022-08-10T06:29:02.332Z,16.89
2022-08-10T06:31:48.210Z,17.01
2022-08-10T06:34:21.580Z,17.06
2022-08-10T06:36:48.671Z,16.86
2022-08-10T06:39:34.130Z,16.79
2022-08-10T06:42:18.337Z,16.89
2022-08-10T06:45:19.488Z,16.95
2022-08-10T06:47:52.216Z,16.85
2022-08-10T06:50:56.265Z,16.87
2022-08-10T06:53:53.401Z,17.03
2022-08-10T06:56:36.480Z,17.20
2022-08-10T06:59:15.545Z,17.21
2022-08-10T07:01:53.352Z,17.23
2022-08-10T07:04:32.754Z,17.28
2022-08-10T07:07:04.557Z,17.32
2022-08-10T07:09:35.456Z,17.40
2022-08-10T07:12:08.564Z,17.54
2022-08-10T07:14:42.108Z,17.54
2022-08-10T07:17:19.896Z,17.65
2022-08-10T07:19:52.068Z,17.79
2022-08-10T07:23:26.875Z,17.88
2022-08-10T07:25:12.451Z,17.92
2022-08-10T07:27:59.574Z,17.99
2022-08-10T07:30:29.030Z,18.11
2022-08-10T07:32:56.768Z,18.20
2022-08-10T07:35:26.677Z,18.27
2022-08-10T07:37:55.346Z,18.32
2022-08-10T07:40:23.639Z,18.42
2022-08-10T07:42:56.361Z,18.40
2022-08-10T07:45:24.392Z,18.41
2022-08-10T07:48:27.888Z,18.52
2022-08-10T07:50:59.369Z,18.53
2022-08-10T07:53:35.572Z,18.59
2022-08-10T07:56:20.880Z,18.59
2022-08-10T07:59:02.409Z,18.60
2022-08-10T08:01:33.539Z,18.69
2022-08-10T08:04:05.347Z,18.82
2022-08-10T08:06:40.261Z,18.87
2022-08-10T08:09:07.031Z,18.92
2022-08-10T08:11:38.157Z,18.95
2022-08-10T08:14:09.681Z,19.04
2022-08-10T08:16:39.949Z,19.07
2022-08-10T08:19:27.913Z,18.99
2022-08-10T08:24:05.241Z,18.97
2022-08-10T08:24:44.442Z,19.02
2022-08-10T08:27:15.370Z,19.03
2022-08-10T08:29:44.778Z,19.00
2022-08-10T08:32:13.314Z,19.00
2022-08-10T08:34:43.762Z,18.98
2022-08-10T08:37:12.307Z,19.02
2022-08-10T08:39:48.133Z,19.09
2022-08-10T08:42:46.925Z,19.26
2022-08-10T08:46:09.436Z,19.27
2022-08-10T08:49:11.017Z,19.34
2022-08-10T08:52:09.675Z,19.53
2022-08-10T08:54:42.837Z,19.62
2022-08-10T08:57:51.254Z,19.64
2022-08-10T09:00:34.403Z,19.58
2022-08-10T09:03:28.102Z,19.58
2022-08-10T09:06:23.120Z,19.55
2022-08-10T09:08:52.715Z,19.62
2022-08-10T09:11:19.284Z,19.61
2022-08-10T09:13:58.056Z,19.65
2022-08-10T09:17:13.107Z,19.85
2022-08-10T09:20:17.569Z,20.12
2022-08-10T09:23:01.548Z,20.26
2022-08-10T09:25:39.389Z,20.27
2022-08-10T09:28:08.518Z,20.27
2022-08-10T09:31:18.884Z,20.33
2022-08-10T09:36:27.870Z,20.30
2022-08-10T09:37:03.304Z,20.34
2022-08-10T09:40:56.015Z,20.29
2022-08-10T09:42:33.784Z,20.32
2022-08-10T09:45:07.253Z,20.41
2022-08-10T09:48:02.347Z,20.45
2022-08-10T09:51:09.309Z,20.45
2022-08-10T09:53:48.222Z,20.47
2022-08-10T09:56:59.749Z,20.56
2022-08-10T10:00:09.114Z,20.68
2022-08-10T10:02:47.146Z,20.76
2022-08-10T10:05:39.169Z,20.85
2022-08-10T10:08:44.736Z,20.96
2022-08-10T10:11:25.213Z,21.08
2022-08-10T10:14:05.135Z,21.15
2022-08-10T10:16:43.717Z,21.20
2022-08-10T10:19:38.479Z,21.31
2022-08-10T10:22:26.191Z,21.39
2022-08-10T10:25:02.300Z,21.43
2022-08-10T10:27:58.603Z,21.54
2022-08-10T10:30:31.192Z,21.57
2022-08-10T10:33:33.364Z,21.68
2022-08-10T10:36:02.196Z,21.69
2022-08-10T10:38:38.208Z,21.66
2022-08-10T10:41:29.828Z,21.79
2022-08-10T10:44:07.650Z,21.81
2022-08-10T10:53:39.418Z,22.08
2022-08-10T10:56:27.354Z,22.14
2022-08-10T10:59:53.823Z,22.25
2022-08-10T11:02:21.445Z,22.39
2022-08-10T11:05:09.548Z,22.48
2022-08-10T11:07:45.853Z,22.51
2022-08-10T11:10:32.883Z,22.58
2022-08-10T11:14:26.970Z,22.68
2022-08-10T11:16:25.008Z,22.72
2022-08-10T11:19:13.501Z,22.81
2022-08-10T11:21:52.007Z,22.92
2022-08-10T11:24:48.016Z,22.99
2022-08-10T11:27:22.309Z,23.06
2022-08-10T11:30:08.258Z,23.05
2022-08-10T11:32:53.403Z,23.07
2022-08-10T11:35:44.739Z,23.07
2022-08-10T11:38:34.867Z,23.07
2022-08-10T11:42:07.778Z,22.97
2022-08-10T11:44:31.144Z,22.98
2022-08-10T11:47:05.023Z,22.98
2022-08-10T11:49:49.513Z,23.01
2022-08-10T11:52:25.836Z,23.06
2022-08-10T11:54:54.549Z,23.10
2022-08-10T11:57:25.305Z,23.20
2022-08-10T12:00:13.008Z,23.34
2022-08-10T12:02:46.308Z,23.35
2022-08-10T12:05:20.302Z,23.28
2022-08-10T12:08:54.538Z,23.34
2022-08-10T12:10:43.480Z,23.39
2022-08-10T12:13:16.988Z,23.52
2022-08-10T12:15:55.906Z,23.52
2022-08-10T12:18:30.748Z,23.57
2022-08-10T12:21:05.422Z,23.61
2022-08-10T12:23:46.280Z,23.73
2022-08-10T12:26:20.789Z,23.79
2022-08-10T12:29:12.824Z,23.73
2022-08-10T12:31:58.169Z,23.51
2022-08-10T12:34:45.501Z,23.52
2022-08-10T12:37:22.955Z,23.71
2022-08-10T12:40:33.986Z,23.75
2022-08-10T12:44:07.013Z,23.82
2022-08-10T12:46:14.968Z,23.92
2022-08-10T12:49:00.602Z,23.89
2022-08-10T12:51:30.518Z,23.59
2022-08-10T12:54:08.172Z,23.66
2022-08-10T12:56:40.026Z,23.59
2022-08-10T12:59:09.956Z,23.68
2022-08-10T13:02:09.474Z,23.74
2022-08-10T13:04:35.609Z,23.62
2022-08-10T13:07:04.708Z,23.40
2022-08-10T13:09:34.609Z,23.42
2022-08-10T13:12:35.887Z,23.73
2022-08-10T13:15:49.870Z,23.77
2022-08-10T13:18:23.076Z,23.79
2022-08-10T13:20:55.239Z,23.83
2022-08-10T13:23:26.904Z,23.97
2022-08-10T13:25:56.901Z,24.10
2022-08-10T13:28:45.585Z,24.23
2022-08-10T13:31:21.709Z,24.11
2022-08-10T13:34:43.393Z,24.20
2022-08-10T13:37:09.449Z,24.48
2022-08-10T13:39:59.251Z,24.50
2022-08-10T13:42:32.084Z,24.52
2022-08-10T13:45:05.073Z,24.55
2022-08-10T13:47:47.972Z,24.53
2022-08-10T13:50:33.396Z,24.53
2022-08-10T13:53:09.958Z,24.73
2022-08-10T13:55:54.538Z,24.87
2022-08-10T13:58:32.456Z,24.95
2022-08-10T14:01:01.813Z,24.99
2022-08-10T14:03:34.449Z,25.10
2022-08-10T14:06:04.429Z,25.08
2022-08-10T14:08:32.826Z,24.90
2022-08-10T14:11:09.417Z,24.77
2022-08-10T14:13:43.449Z,24.64
2022-08-10T14:16:12.153Z,24.56
2022-08-10T14:18:42.294Z,24.83
2022-08-10T14:21:09.362Z,24.90
2022-08-10T14:23:41.606Z,24.88
2022-08-10T14:26:09.587Z,24.72
2022-08-10T14:28:51.374Z,24.44
2022-08-10T14:31:22.333Z,24.51
2022-08-10T14:33:54.629Z,24.39
2022-08-10T14:36:47.530Z,24.33
2022-08-10T14:39:26.868Z,24.39
2022-08-10T14:42:01.932Z,24.30
2022-08-10T14:44:45.218Z,24.59
2022-08-10T14:47:53.245Z,24.98
2022-08-10T14:50:03.462Z,25.44
2022-08-10T14:52:39.312Z,25.56
2022-08-10T14:55:19.762Z,25.48
2022-08-10T14:58:16.559Z,25.41
2022-08-10T15:00:42.839Z,25.39
2022-08-10T15:03:58.070Z,25.19
2022-08-10T15:06:06.989Z,25.20
2022-08-10T15:08:37.085Z,24.94
2022-08-10T15:11:05.248Z,24.93
2022-08-10T15:13:34.308Z,24.99
2022-08-10T15:16:13.029Z,24.83
2022-08-10T15:18:57.523Z,25.15
2022-08-10T15:21:42.905Z,25.57
2022-08-10T15:24:36.986Z,25.73
2022-08-10T15:27:09.386Z,25.67
2022-08-10T15:29:36.978Z,25.31
2022-08-10T15:32:49.381Z,25.26
2022-08-10T15:35:36.434Z,24.88
2022-08-10T15:38:06.876Z,24.84
2022-08-10T15:40:50.744Z,24.76
2022-08-10T15:43:25.192Z,24.59
2022-08-10T15:46:02.084Z,24.79
2022-08-10T15:48:40.617Z,24.73
2022-08-10T15:51:53.842Z,24.78
2022-08-10T15:54:33.339Z,24.89
2022-08-10T15:57:10.641Z,25.15
2022-08-10T16:00:00.092Z,25.50
2022-08-10T16:02:30.135Z,25.46
2022-08-10T16:05:11.312Z,25.42
2022-08-10T16:07:49.178Z,25.28
2022-08-10T16:10:28.824Z,24.82
2022-08-10T16:13:51.072Z,24.76
2022-08-10T16:15:53.501Z,24.52
2022-08-10T16:18:26.417Z,24.39
2022-08-10T16:21:01.830Z,24.51
2022-08-10T16:23:32.681Z,24.41
2022-08-10T16:26:14.849Z,24.53
2022-08-10T16:28:50.032Z,24.57
2022-08-10T16:31:22.313Z,24.65
2022-08-10T16:33:53.484Z,24.85
2022-08-10T16:36:28.860Z,24.92
2022-08-10T16:38:55.928Z,24.88
2022-08-10T16:42:03.355Z,24.96
2022-08-10T16:44:17.627Z,25.09
2022-08-10T16:46:45.326Z,25.21
2022-08-10T16:49:18.015Z,25.27
2022-08-10T16:51:49.309Z,25.37
2022-08-10T16:54:24.849Z,25.45
2022-08-10T16:57:01.498Z,25.48
2022-08-10T16:59:34.145Z,25.59
2022-08-10T17:02:01.758Z,25.56
2022-08-10T17:04:31.299Z,25.47
2022-08-10T17:07:01.178Z,25.23
2022-08-10T17:09:31.953Z,25.05
2022-08-10T17:12:04.559Z,24.85
2022-08-10T17:14:31.391Z,24.67
2022-08-10T17:17:07.585Z,24.56
2022-08-10T17:19:42.484Z,24.37
2022-08-10T17:22:17.436Z,24.24
2022-08-10T17:24:48.885Z,24.13
2022-08-10T17:28:05.292Z,24.08
2022-08-10T17:30:12.443Z,23.67
2022-08-10T17:33:01.733Z,23.33
2022-08-10T17:35:32.344Z,23.42
2022-08-10T17:38:09.601Z,23.18
2022-08-10T17:40:55.568Z,23.08
2022-08-10T17:43:46.093Z,23.04
2022-08-10T17:46:14.114Z,22.79
2022-08-10T17:48:42.997Z,22.79
2022-08-10T17:51:14.086Z,22.82
2022-08-10T17:53:56.570Z,22.63
2022-08-10T17:56:25.059Z,22.58
2022-08-10T17:58:57.985Z,22.67
2022-08-10T18:01:41.263Z,22.45
2022-08-10T18:04:19.345Z,22.38
2022-08-10T18:06:53.327Z,22.47
2022-08-10T18:09:30.952Z,22.27
2022-08-10T18:12:02.400Z,22.24
2022-08-10T18:14:38.906Z,22.34
2022-08-10T18:17:13.116Z,22.23
2022-08-10T18:19:45.105Z,22.06
2022-08-10T18:22:13.757Z,22.22
2022-08-10T18:24:42.662Z,22.24
2022-08-10T18:27:12.334Z,22.04
2022-08-10T18:29:42.527Z,22.10
2022-08-10T18:32:11.616Z,22.14
2022-08-10T18:34:40.989Z,21.98
2022-08-10T18:37:10.456Z,21.89
2022-08-10T18:39:40.724Z,22.02
2022-08-10T18:42:12.453Z,22.01
2022-08-10T18:44:47.417Z,21.73
2022-08-10T18:47:19.825Z,21.70
2022-08-10T18:50:05.741Z,21.79
2022-08-10T18:52:34.685Z,21.74
2022-08-10T18:55:14.243Z,21.47
2022-08-10T18:58:10.394Z,21.51
2022-08-10T19:01:09.392Z,21.57
2022-08-10T19:03:54.573Z,21.68
2022-08-10T19:06:52.027Z,21.40
2022-08-10T19:09:45.601Z,21.21
2022-08-10T19:12:40.405Z,21.34
2022-08-10T19:15:24.060Z,21.35
2022-08-10T19:18:07.704Z,21.26
2022-08-10T19:20:50.931Z,20.96
2022-08-10T19:23:33.653Z,21.06
2022-08-10T19:26:42.031Z,21.15
2022-08-10T19:29:10.949Z,21.20
2022-08-10T19:32:10.752Z,20.78
2022-08-10T19:34:37.464Z,20.74
2022-08-10T19:37:16.563Z,20.86
2022-08-10T19:39:50.371Z,20.92
2022-08-10T19:42:31.461Z,20.86
2022-08-10T19:46:01.275Z,20.60
2022-08-10T19:48:38.150Z,20.60
2022-08-10T19:51:13.899Z,20.69
2022-08-10T19:54:02.032Z,20.77
2022-08-10T19:56:50.157Z,20.76
2022-08-10T20:00:16.600Z,20.37
2022-08-10T20:02:27.030Z,20.42
2022-08-10T20:05:12.325Z,20.50
2022-08-10T20:08:05.293Z,20.54
2022-08-10T20:10:47.660Z,20.53
2022-08-10T20:13:40.625Z,20.57
2022-08-10T20:16:11.784Z,20.50
2022-08-10T20:18:53.932Z,20.13
2022-08-10T20:21:36.533Z,20.19
2022-08-10T20:24:11.336Z,20.25
2022-08-10T20:26:55.117Z,20.22
2022-08-10T20:29:58.229Z,20.28
2022-08-10T20:32:25.575Z,20.32
2022-08-10T20:35:08.157Z,20.32
2022-08-10T20:38:04.136Z,20.27
2022-08-10T20:40:47.348Z,20.00
2022-08-10T20:43:45.696Z,20.01
2022-08-10T20:46:27.961Z,20.08
2022-08-10T20:48:54.669Z,20.13
2022-08-10T20:51:59.297Z,20.09
2022-08-10T20:54:16.161Z,20.08
2022-08-10T20:56:54.745Z,20.09
2022-08-10T21:00:04.592Z,20.07
2022-08-10T21:02:48.722Z,20.01
2022-08-10T21:05:25.397Z,19.91
2022-08-10T21:08:25.424Z,19.59
2022-08-10T21:11:36.301Z,19.67
2022-08-10T21:14:10.726Z,19.71
2022-08-10T21:16:45.259Z,19.76
2022-08-10T21:19:34.708Z,19.75
2022-08-10T21:22:26.383Z,19.75
2022-08-10T21:25:15.701Z,19.66
2022-08-10T21:28:04.230Z,19.48
2022-08-10T21:30:46.025Z,19.60
2022-08-10T21:33:36.969Z,19.68
2022-08-10T21:36:23.578Z,19.67
2022-08-10T21:39:07.618Z,19.67
2022-08-10T21:42:16.931Z,19.75
2022-08-10T21:45:58.693Z,19.60
2022-08-10T21:48:57.069Z,19.36
2022-08-10T21:52:01.757Z,19.44
2022-08-10T21:55:03.108Z,19.05
2022-08-10T21:58:08.789Z,19.09
2022-08-10T22:01:13.421Z,19.19
2022-08-10T22:04:01.169Z,19.21
2022-08-10T22:06:52.589Z,19.14
2022-08-10T22:09:45.896Z,19.09
2022-08-10T22:12:34.283Z,19.14
2022-08-10T22:16:03.344Z,19.14
2022-08-10T22:18:53.746Z,19.00
2022-08-10T22:22:27.815Z,18.94
2022-08-10T22:25:35.637Z,18.89
2022-08-10T22:28:20.976Z,18.90
2022-08-10T22:31:32.995Z,18.81
2022-08-10T22:34:59.120Z,18.82
2022-08-10T22:37:57.143Z,18.81
2022-08-10T22:40:44.281Z,18.78
2022-08-10T22:43:42.432Z,18.70
2022-08-10T22:46:46.499Z,18.54
2022-08-10T22:49:21.233Z,18.56
2022-08-10T22:52:19.480Z,18.55
2022-08-10T22:55:16.092Z,18.54
2022-08-10T22:58:06.651Z,18.43
2022-08-10T23:00:34.482Z,18.51
2022-08-10T23:03:13.373Z,18.49
2022-08-10T23:05:57.606Z,18.46
2022-08-10T23:08:30.647Z,18.43
2022-08-10T23:11:04.457Z,18.33
2022-08-10T23:13:36.049Z,18.37
2022-08-10T23:16:37.519Z,18.37
2022-08-10T23:19:13.348Z,18.33
2022-08-10T23:22:03.761Z,18.32
2022-08-10T23:24:34.433Z,18.27
2022-08-10T23:27:12.501Z,18.22
2022-08-10T23:30:09.708Z,18.09
2022-08-10T23:32:43.320Z,17.94
2022-08-10T23:36:31.312Z,17.86
2022-08-10T23:38:03.645Z,17.82
2022-08-10T23:40:31.536Z,17.75
2022-08-10T23:42:59.523Z,17.76
2022-08-10T23:45:29.044Z,17.67
2022-08-10T23:48:18.794Z,17.60
2022-08-10T23:50:53.173Z,17.58
2022-08-10T23:53:37.143Z,17.57
2022-08-10T23:56:14.429Z,17.51
2022-08-10T23:58:48.119Z,17.49
